Flight Track Log - Related Links

Times and Time Zones

All times are in EDT time to prevent confusion due to time zone crossing. See the SKW5564 flight status page for this flight to view local times or setup timezone preferences in your user account.

Time Position Orientation Groundspeed Altitude Reporting Facility
EDT Latitude Longitude Course Direction KTS MPH feet Rate Location/Type
Sun 08:46:21 AM 42.0000 -87.9500 270° West 164 189 1,600  Level Chicago TRACON
Sun 08:47:21 AM 42.0000 -88.0000 270° West 182 209 3,600 2,135 Climbing Chicago TRACON
Sun 08:49:04 AM 41.9928 -88.1603 267° West 244 281 7,400 2,327 Climbing Chicago Center
Sun 08:50:06 AM 41.9886 -88.2572 267° West 260 299 10,000 2,098 Climbing Chicago Center
Sun 08:51:07 AM 41.9847 -88.3678 267° West 292 336 11,700 1,756 Climbing Chicago Center
Sun 08:52:09 AM 41.9817 -88.4867 268° West 315 362 13,600 1,610 Climbing Chicago Center
Sun 08:53:10 AM 41.9797 -88.6100 269° West 329 379 15,000 1,561 Climbing Chicago Center
Sun 08:54:12 AM 41.9772 -88.7419 269° West 353 406 16,800 1,268 Climbing Chicago Center
Sun 08:55:13 AM 41.9744 -88.9067 269° West 369 425 17,600 537 Climbing Chicago Center
Sun 08:56:15 AM 41.9703 -89.0542 268° West 395 455 17,900 195 Climbing Chicago Center
Sun 08:57:16 AM 41.9689 -89.2075 269° West 415 478 18,000 49 Climbing Chicago Center
Sun 08:58:18 AM 41.9647 -89.3658 268° West 426 490 18,000  Level Chicago Center
Sun 08:59:19 AM 41.9614 -89.5208 268° West 422 486 18,000  Level Chicago Center
Sun 09:00:21 AM 41.9569 -89.6753 268° West 418 481 18,000  Level Chicago Center
Sun 09:01:23 AM 41.9511 -89.8642 268° West 423 487 18,000  Level Chicago Center
Sun 09:02:24 AM 41.9489 -90.0164 269° West 426 490 18,000  Level Chicago Center
Sun 09:03:26 AM 41.9433 -90.1711 267° West 421 484 18,000  Level Chicago Center
Sun 09:04:27 AM 41.9392 -90.3247 268° West 419 482 18,000  Level Chicago Center
Sun 09:05:29 AM 41.9339 -90.4786 267° West 417 480 18,000 -823 Level Chicago Center
Sun 09:06:31 AM 41.9286 -90.6306 267° West 413 475 16,300 -2,049 Descending Chicago Center
Sun 09:07:32 AM 41.9208 -90.8067 267° West 401 461 13,800 -2,146 Descending Chicago Center
Sun 09:08:34 AM 41.9147 -90.9369 266° West 366 421 11,900 -1,415 Descending Chicago Center
Sun 09:09:35 AM 41.9103 -91.0481 267° West 317 365 10,900 -1,463 Descending Chicago Center
Sun 09:10:37 AM 41.9058 -91.1475 267° West 273 314 8,900 -1,839 Descending Chicago Center
Sun 09:11:39 AM 41.9014 -91.2386 266° West 251 289 7,100 -1,659 Descending Chicago Center
Sun 09:12:40 AM 41.8969 -91.3253 266° West 238 274 5,500 -1,171 Descending Chicago Center
Sun 09:13:42 AM 41.8917 -91.4089 265° West 198 228 4,700 -585 Descending Chicago Center
Sun 09:14:43 AM 41.8872 -91.4669 264° West 174 200 4,300 -634 Descending Chicago Center
Sun 09:15:45 AM 41.8844 -91.5275 266° West 167 192 3,400 -871 Descending Chicago Center
Sun 09:16:47 AM 41.8828 -91.5867 268° West 164 189 2,500 -829 Descending Chicago Center
Sun 09:17:48 AM 41.8839 -91.6375 272° West 155 178 1,700 -537 Descending Chicago Center
Sun 09:18:50 AM 41.8847 -91.6917 271° West 146 168 1,400 -290 Descending Chicago Center
Sun 09:20:00 AM 41.8833 -91.7000 270° West  Level FlightAware Approximate
Sun 09:27:00 AM 41.8847 -91.7108 270° West  Level Estimated

Login

Don't have an account? Register now (free) for customized features, flight alerts, and more!